sensor_id;sensor_type;location;lat;lon;timestamp;pressure;altitude;pressure_sealevel;temperature;humidity
35892;BME280;21993;42.672;23.296;2022-09-14T00:02:16;94647.25;;;17.37;58.12
35892;BME280;21993;42.672;23.296;2022-09-14T00:04:41;94648.78;;;17.32;58.43
35892;BME280;21993;42.672;23.296;2022-09-14T00:07:07;94646.00;;;17.33;58.57
35892;BME280;21993;42.672;23.296;2022-09-14T00:09:32;94644.88;;;17.28;58.61
35892;BME280;21993;42.672;23.296;2022-09-14T00:11:58;94650.88;;;17.22;58.80
35892;BME280;21993;42.672;23.296;2022-09-14T00:14:23;94646.88;;;17.26;58.70
35892;BME280;21993;42.672;23.296;2022-09-14T00:16:49;94657.38;;;17.19;59.02
35892;BME280;21993;42.672;23.296;2022-09-14T00:19:26;94656.72;;;17.17;58.56
35892;BME280;21993;42.672;23.296;2022-09-14T00:21:54;94650.94;;;17.13;58.82
35892;BME280;21993;42.672;23.296;2022-09-14T00:24:20;94657.06;;;17.14;57.95
35892;BME280;21993;42.672;23.296;2022-09-14T00:26:46;94650.84;;;17.07;58.89
35892;BME280;21993;42.672;23.296;2022-09-14T00:29:12;94653.19;;;17.02;58.61
35892;BME280;21993;42.672;23.296;2022-09-14T00:31:38;94653.38;;;17.00;58.38
35892;BME280;21993;42.672;23.296;2022-09-14T00:34:07;94654.66;;;17.04;58.83
35892;BME280;21993;42.672;23.296;2022-09-14T00:36:37;94666.13;;;16.97;58.49
35892;BME280;21993;42.672;23.296;2022-09-14T00:39:03;94649.56;;;16.95;59.17
35892;BME280;21993;42.672;23.296;2022-09-14T00:41:31;94655.88;;;16.94;59.07
35892;BME280;21993;42.672;23.296;2022-09-14T00:46:34;94663.19;;;16.92;59.20
35892;BME280;21993;42.672;23.296;2022-09-14T00:49:02;94659.41;;;16.86;58.40
35892;BME280;21993;42.672;23.296;2022-09-14T00:51:30;94664.72;;;16.86;58.04
35892;BME280;21993;42.672;23.296;2022-09-14T00:53:59;94666.22;;;16.80;57.51
35892;BME280;21993;42.672;23.296;2022-09-14T00:56:25;94674.19;;;16.80;58.53
35892;BME280;21993;42.672;23.296;2022-09-14T00:58:52;94671.19;;;16.83;57.27
35892;BME280;21993;42.672;23.296;2022-09-14T01:01:18;94662.88;;;16.86;57.06
35892;BME280;21993;42.672;23.296;2022-09-14T01:03:44;94679.16;;;16.83;57.22
35892;BME280;21993;42.672;23.296;2022-09-14T01:16:50;94678.25;;;16.60;57.65
35892;BME280;21993;42.672;23.296;2022-09-14T01:19:30;94664.34;;;16.58;57.95
35892;BME280;21993;42.672;23.296;2022-09-14T01:22:06;94675.06;;;16.65;57.94
35892;BME280;21993;42.672;23.296;2022-09-14T01:24:39;94673.41;;;16.64;58.28
35892;BME280;21993;42.672;23.296;2022-09-14T01:30:10;94670.66;;;16.57;58.14
35892;BME280;21993;42.672;23.296;2022-09-14T01:32:38;94667.19;;;16.56;58.82
35892;BME280;21993;42.672;23.296;2022-09-14T01:35:33;94663.34;;;16.59;58.60
35892;BME280;21993;42.672;23.296;2022-09-14T01:38:03;94662.25;;;16.45;59.10
35892;BME280;21993;42.672;23.296;2022-09-14T01:40:46;94661.25;;;16.46;58.73
35892;BME280;21993;42.672;23.296;2022-09-14T01:43:17;94667.91;;;16.42;59.62
35892;BME280;21993;42.672;23.296;2022-09-14T01:45:51;94668.72;;;16.43;59.66
35892;BME280;21993;42.672;23.296;2022-09-14T01:48:22;94665.44;;;16.41;59.73
35892;BME280;21993;42.672;23.296;2022-09-14T01:50:55;94675.19;;;16.40;59.54
35892;BME280;21993;42.672;23.296;2022-09-14T01:53:26;94675.69;;;16.36;60.13
35892;BME280;21993;42.672;23.296;2022-09-14T01:56:02;94675.53;;;16.37;60.17
35892;BME280;21993;42.672;23.296;2022-09-14T01:58:43;94668.22;;;16.39;60.04
35892;BME280;21993;42.672;23.296;2022-09-14T02:01:16;94662.09;;;16.39;59.61
35892;BME280;21993;42.672;23.296;2022-09-14T02:03:47;94666.28;;;16.33;60.09
35892;BME280;21993;42.672;23.296;2022-09-14T02:06:39;94663.59;;;16.41;59.61
35892;BME280;21993;42.672;23.296;2022-09-14T02:09:09;94666.09;;;16.35;59.51
35892;BME280;21993;42.672;23.296;2022-09-14T02:11:35;94659.97;;;16.34;60.31
35892;BME280;21993;42.672;23.296;2022-09-14T02:14:02;94669.25;;;16.30;60.77
35892;BME280;21993;42.672;23.296;2022-09-14T02:16:28;94670.47;;;16.19;61.05
35892;BME280;21993;42.672;23.296;2022-09-14T02:18:54;94677.94;;;16.16;61.20
35892;BME280;21993;42.672;23.296;2022-09-14T02:21:23;94673.28;;;16.18;61.37
35892;BME280;21993;42.672;23.296;2022-09-14T02:23:50;94663.38;;;16.12;61.32
35892;BME280;21993;42.672;23.296;2022-09-14T02:26:17;94664.03;;;16.05;61.35
35892;BME280;21993;42.672;23.296;2022-09-14T02:28:44;94662.53;;;16.11;61.31
35892;BME280;21993;42.672;23.296;2022-09-14T02:39:20;94668.38;;;16.07;61.61
35892;BME280;21993;42.672;23.296;2022-09-14T02:44:45;94678.28;;;15.96;62.24
35892;BME280;21993;42.672;23.296;2022-09-14T02:47:23;94670.22;;;15.98;61.87
35892;BME280;21993;42.672;23.296;2022-09-14T02:52:56;94672.06;;;15.89;62.16
35892;BME280;21993;42.672;23.296;2022-09-14T02:55:25;94677.00;;;15.84;62.32
35892;BME280;21993;42.672;23.296;2022-09-14T02:58:05;94669.91;;;15.85;62.32
35892;BME280;21993;42.672;23.296;2022-09-14T03:00:34;94680.31;;;15.78;62.89
35892;BME280;21993;42.672;23.296;2022-09-14T03:03:01;94676.03;;;15.77;62.50
35892;BME280;21993;42.672;23.296;2022-09-14T03:05:27;94672.06;;;15.81;61.85
35892;BME280;21993;42.672;23.296;2022-09-14T03:07:52;94682.97;;;15.78;61.84
35892;BME280;21993;42.672;23.296;2022-09-14T03:10:18;94677.69;;;15.70;62.36
35892;BME280;21993;42.672;23.296;2022-09-14T03:12:44;94677.03;;;15.68;62.58
35892;BME280;21993;42.672;23.296;2022-09-14T03:15:09;94676.69;;;15.71;62.29
35892;BME280;21993;42.672;23.296;2022-09-14T03:17:35;94674.22;;;15.69;62.13
35892;BME280;21993;42.672;23.296;2022-09-14T03:20:01;94675.03;;;15.70;62.67
35892;BME280;21993;42.672;23.296;2022-09-14T03:22:26;94687.97;;;15.65;62.84
35892;BME280;21993;42.672;23.296;2022-09-14T03:24:51;94672.91;;;15.65;62.82
35892;BME280;21993;42.672;23.296;2022-09-14T03:27:17;94684.31;;;15.66;62.70
35892;BME280;21993;42.672;23.296;2022-09-14T03:29:42;94678.53;;;15.62;62.87
35892;BME280;21993;42.672;23.296;2022-09-14T03:32:08;94669.75;;;15.62;63.11
35892;BME280;21993;42.672;23.296;2022-09-14T03:34:35;94671.56;;;15.53;63.07
35892;BME280;21993;42.672;23.296;2022-09-14T03:37:00;94681.66;;;15.58;62.94
35892;BME280;21993;42.672;23.296;2022-09-14T03:39:26;94676.03;;;15.53;63.24
35892;BME280;21993;42.672;23.296;2022-09-14T03:41:52;94675.03;;;15.54;63.28
35892;BME280;21993;42.672;23.296;2022-09-14T03:44:17;94672.88;;;15.57;62.77
35892;BME280;21993;42.672;23.296;2022-09-14T03:46:43;94672.06;;;15.57;62.38
35892;BME280;21993;42.672;23.296;2022-09-14T03:49:08;94684.78;;;15.53;62.99
35892;BME280;21993;42.672;23.296;2022-09-14T03:51:34;94682.31;;;15.43;63.19
35892;BME280;21993;42.672;23.296;2022-09-14T03:53:59;94685.59;;;15.37;63.52
35892;BME280;21993;42.672;23.296;2022-09-14T03:56:25;94682.47;;;15.42;63.26
35892;BME280;21993;42.672;23.296;2022-09-14T03:58:51;94686.94;;;15.41;63.40
35892;BME280;21993;42.672;23.296;2022-09-14T04:01:20;94678.34;;;15.39;63.27
35892;BME280;21993;42.672;23.296;2022-09-14T04:03:47;94689.06;;;15.38;63.68
35892;BME280;21993;42.672;23.296;2022-09-14T04:06:13;94683.13;;;15.44;63.42
35892;BME280;21993;42.672;23.296;2022-09-14T04:08:41;94684.47;;;15.40;63.55
35892;BME280;21993;42.672;23.296;2022-09-14T04:11:08;94688.59;;;15.42;63.67
35892;BME280;21993;42.672;23.296;2022-09-14T04:13:34;94683.66;;;15.39;63.67
35892;BME280;21993;42.672;23.296;2022-09-14T04:16:00;94693.41;;;15.39;63.68
35892;BME280;21993;42.672;23.296;2022-09-14T04:18:26;94683.66;;;15.39;63.31
35892;BME280;21993;42.672;23.296;2022-09-14T04:20:59;94680.19;;;15.31;63.93
35892;BME280;21993;42.672;23.296;2022-09-14T04:23:25;94689.41;;;15.27;64.12
35892;BME280;21993;42.672;23.296;2022-09-14T04:25:51;94690.06;;;15.20;63.92
35892;BME280;21993;42.672;23.296;2022-09-14T04:28:17;94683.94;;;15.20;64.31
35892;BME280;21993;42.672;23.296;2022-09-14T04:30:43;94686.59;;;15.20;64.37
35892;BME280;21993;42.672;23.296;2022-09-14T04:33:09;94678.50;;;15.21;64.00
35892;BME280;21993;42.672;23.296;2022-09-14T04:35:34;94685.13;;;15.26;64.19
35892;BME280;21993;42.672;23.296;2022-09-14T04:38:02;94693.72;;;15.28;63.73
35892;BME280;21993;42.672;23.296;2022-09-14T04:40:27;94683.47;;;15.33;63.85
35892;BME280;21993;42.672;23.296;2022-09-14T04:42:53;94693.06;;;15.26;64.19
35892;BME280;21993;42.672;23.296;2022-09-14T04:45:18;94694.72;;;15.27;64.23
35892;BME280;21993;42.672;23.296;2022-09-14T04:47:45;94694.22;;;15.23;64.58
35892;BME280;21993;42.672;23.296;2022-09-14T04:50:10;94698.50;;;15.16;64.72
35892;BME280;21993;42.672;23.296;2022-09-14T04:52:36;94693.22;;;15.24;64.32
35892;BME280;21993;42.672;23.296;2022-09-14T04:55:01;94698.19;;;15.27;64.52
35892;BME280;21993;42.672;23.296;2022-09-14T04:57:27;94710.56;;;15.27;64.98
35892;BME280;21993;42.672;23.296;2022-09-14T04:59:52;94711.75;;;15.32;64.88
35892;BME280;21993;42.672;23.296;2022-09-14T05:02:17;94707.28;;;15.33;64.87
35892;BME280;21993;42.672;23.296;2022-09-14T05:04:43;94712.06;;;15.29;65.47
35892;BME280;21993;42.672;23.296;2022-09-14T05:07:08;94709.75;;;15.34;65.78
35892;BME280;21993;42.672;23.296;2022-09-14T05:09:34;94717.53;;;15.36;65.32
35892;BME280;21993;42.672;23.296;2022-09-14T05:11:59;94711.94;;;15.47;65.62
35892;BME280;21993;42.672;23.296;2022-09-14T05:14:25;94720.34;;;15.42;65.24
35892;BME280;21993;42.672;23.296;2022-09-14T05:16:50;94728.63;;;15.39;65.29
35892;BME280;21993;42.672;23.296;2022-09-14T05:19:16;94721.81;;;15.53;65.12
35892;BME280;21993;42.672;23.296;2022-09-14T05:21:42;94723.19;;;15.65;64.64
35892;BME280;21993;42.672;23.296;2022-09-14T05:24:13;94732.25;;;15.71;64.73
35892;BME280;21993;42.672;23.296;2022-09-14T05:26:39;94716.38;;;15.79;64.00
35892;BME280;21993;42.672;23.296;2022-09-14T05:29:05;94731.94;;;15.82;63.94
35892;BME280;21993;42.672;23.296;2022-09-14T05:31:31;94722.19;;;15.91;63.00
35892;BME280;21993;42.672;23.296;2022-09-14T05:33:58;94728.28;;;15.91;63.24
35892;BME280;21993;42.672;23.296;2022-09-14T05:36:23;94717.00;;;15.97;63.15
35892;BME280;21993;42.672;23.296;2022-09-14T05:38:49;94728.75;;;16.11;61.69
35892;BME280;21993;42.672;23.296;2022-09-14T05:41:15;94723.81;;;16.08;62.04
35892;BME280;21993;42.672;23.296;2022-09-14T05:43:41;94724.78;;;16.15;62.68
35892;BME280;21993;42.672;23.296;2022-09-14T05:46:10;94727.72;;;16.28;61.89
35892;BME280;21993;42.672;23.296;2022-09-14T05:48:37;94731.53;;;16.26;62.99
35892;BME280;21993;42.672;23.296;2022-09-14T05:51:14;94739.09;;;16.37;62.67
35892;BME280;21993;42.672;23.296;2022-09-14T05:53:41;94746.53;;;16.50;61.57
35892;BME280;21993;42.672;23.296;2022-09-14T05:56:07;94734.81;;;16.36;62.44
35892;BME280;21993;42.672;23.296;2022-09-14T05:58:34;94737.25;;;16.46;62.29
35892;BME280;21993;42.672;23.296;2022-09-14T06:01:11;94747.53;;;16.49;61.85
35892;BME280;21993;42.672;23.296;2022-09-14T06:03:37;94740.88;;;16.53;61.49
35892;BME280;21993;42.672;23.296;2022-09-14T06:06:04;94741.81;;;16.68;60.59
35892;BME280;21993;42.672;23.296;2022-09-14T06:08:31;94744.75;;;16.81;60.55
35892;BME280;21993;42.672;23.296;2022-09-14T06:11:04;94744.66;;;16.75;61.10
35892;BME280;21993;42.672;23.296;2022-09-14T06:13:31;94736.03;;;16.73;61.09
35892;BME280;21993;42.672;23.296;2022-09-14T06:16:01;94735.69;;;16.68;61.41
35892;BME280;21993;42.672;23.296;2022-09-14T06:18:29;94740.34;;;16.74;61.58
35892;BME280;21993;42.672;23.296;2022-09-14T06:20:55;94738.31;;;16.84;61.73
35892;BME280;21993;42.672;23.296;2022-09-14T06:23:20;94739.59;;;16.88;61.26
35892;BME280;21993;42.672;23.296;2022-09-14T06:25:45;94725.97;;;16.99;60.47
35892;BME280;21993;42.672;23.296;2022-09-14T06:28:11;94724.78;;;17.33;59.10
35892;BME280;21993;42.672;23.296;2022-09-14T06:30:36;94733.25;;;17.28;59.21
35892;BME280;21993;42.672;23.296;2022-09-14T06:33:03;94723.72;;;17.42;58.58
35892;BME280;21993;42.672;23.296;2022-09-14T06:35:29;94724.59;;;17.34;59.68
35892;BME280;21993;42.672;23.296;2022-09-14T06:37:55;94724.09;;;17.31;59.24
35892;BME280;21993;42.672;23.296;2022-09-14T06:40:20;94725.16;;;17.44;58.96
35892;BME280;21993;42.672;23.296;2022-09-14T06:42:45;94722.34;;;17.46;58.97
35892;BME280;21993;42.672;23.296;2022-09-14T06:45:11;94728.72;;;17.60;58.38
35892;BME280;21993;42.672;23.296;2022-09-14T06:47:36;94722.00;;;17.72;57.97
35892;BME280;21993;42.672;23.296;2022-09-14T06:50:02;94731.31;;;17.68;58.49
35892;BME280;21993;42.672;23.296;2022-09-14T06:52:27;94739.75;;;17.71;58.60
35892;BME280;21993;42.672;23.296;2022-09-14T06:54:53;94739.09;;;17.92;57.70
35892;BME280;21993;42.672;23.296;2022-09-14T06:57:18;94735.16;;;18.03;57.43
35892;BME280;21993;42.672;23.296;2022-09-14T06:59:44;94739.66;;;18.03;57.42
35892;BME280;21993;42.672;23.296;2022-09-14T07:02:12;94738.19;;;18.15;56.92
35892;BME280;21993;42.672;23.296;2022-09-14T07:04:38;94742.44;;;18.09;57.41
35892;BME280;21993;42.672;23.296;2022-09-14T07:07:03;94738.13;;;18.08;57.87
35892;BME280;21993;42.672;23.296;2022-09-14T07:09:28;94745.00;;;18.17;57.79
35892;BME280;21993;42.672;23.296;2022-09-14T07:11:55;94725.41;;;18.33;57.34
35892;BME280;21993;42.672;23.296;2022-09-14T07:14:21;94719.06;;;18.49;56.38
35892;BME280;21993;42.672;23.296;2022-09-14T07:16:46;94725.19;;;18.49;57.24
35892;BME280;21993;42.672;23.296;2022-09-14T07:19:13;94711.91;;;18.64;56.50
35892;BME280;21993;42.672;23.296;2022-09-14T07:21:40;94720.72;;;18.65;56.42
35892;BME280;21993;42.672;23.296;2022-09-14T07:24:06;94726.50;;;18.83;55.71
35892;BME280;21993;42.672;23.296;2022-09-14T07:26:39;94721.25;;;18.90;55.13
35892;BME280;21993;42.672;23.296;2022-09-14T07:29:09;94720.31;;;19.12;54.74
35892;BME280;21993;42.672;23.296;2022-09-14T07:31:38;94716.53;;;19.06;55.26
35892;BME280;21993;42.672;23.296;2022-09-14T07:34:04;94715.63;;;19.14;55.01
35892;BME280;21993;42.672;23.296;2022-09-14T07:36:32;94709.03;;;19.31;54.74
35892;BME280;21993;42.672;23.296;2022-09-14T07:38:57;94710.94;;;19.37;54.44
35892;BME280;21993;42.672;23.296;2022-09-14T07:41:25;94715.34;;;19.45;54.38
35892;BME280;21993;42.672;23.296;2022-09-14T07:43:53;94715.13;;;19.61;53.84
35892;BME280;21993;42.672;23.296;2022-09-14T07:46:20;94714.16;;;19.69;52.78
35892;BME280;21993;42.672;23.296;2022-09-14T07:48:46;94707.94;;;19.62;53.62
35892;BME280;21993;42.672;23.296;2022-09-14T07:51:13;94721.22;;;19.83;53.12
35892;BME280;21993;42.672;23.296;2022-09-14T07:53:41;94705.84;;;20.07;51.35
35892;BME280;21993;42.672;23.296;2022-09-14T07:56:08;94705.63;;;20.02;52.73
35892;BME280;21993;42.672;23.296;2022-09-14T07:58:34;94710.97;;;20.08;52.33
35892;BME280;21993;42.672;23.296;2022-09-14T08:01:02;94708.16;;;20.16;51.91
35892;BME280;21993;42.672;23.296;2022-09-14T08:03:28;94714.78;;;20.20;52.52
35892;BME280;21993;42.672;23.296;2022-09-14T08:06:02;94718.94;;;20.30;52.78
35892;BME280;21993;42.672;23.296;2022-09-14T08:08:32;94714.56;;;20.43;52.06
35892;BME280;21993;42.672;23.296;2022-09-14T08:11:05;94720.31;;;20.47;52.21
35892;BME280;21993;42.672;23.296;2022-09-14T08:13:33;94709.28;;;20.57;51.45
35892;BME280;21993;42.672;23.296;2022-09-14T08:15:59;94708.13;;;20.72;51.54
35892;BME280;21993;42.672;23.296;2022-09-14T08:18:27;94706.06;;;20.74;51.48
35892;BME280;21993;42.672;23.296;2022-09-14T08:20:53;94700.53;;;20.76;51.06
35892;BME280;21993;42.672;23.296;2022-09-14T08:23:18;94701.28;;;21.04;49.72
35892;BME280;21993;42.672;23.296;2022-09-14T08:25:43;94700.50;;;21.11;49.74
35892;BME280;21993;42.672;23.296;2022-09-14T08:28:09;94690.38;;;20.99;51.14
35892;BME280;21993;42.672;23.296;2022-09-14T08:30:35;94701.09;;;21.06;50.17
35892;BME280;21993;42.672;23.296;2022-09-14T08:33:00;94691.13;;;21.28;49.58
35892;BME280;21993;42.672;23.296;2022-09-14T08:35:25;94692.91;;;21.21;51.01
35892;BME280;21993;42.672;23.296;2022-09-14T08:37:51;94698.09;;;21.29;50.95
35892;BME280;21993;42.672;23.296;2022-09-14T08:40:18;94699.56;;;21.51;50.34
35892;BME280;21993;42.672;23.296;2022-09-14T08:42:44;94695.06;;;21.58;50.02
35892;BME280;21993;42.672;23.296;2022-09-14T08:45:14;94692.41;;;21.85;49.52
35892;BME280;21993;42.672;23.296;2022-09-14T08:47:41;94696.72;;;21.92;48.69
35892;BME280;21993;42.672;23.296;2022-09-14T08:50:13;94688.94;;;21.98;48.78
35892;BME280;21993;42.672;23.296;2022-09-14T08:52:47;94688.31;;;21.96;49.05
35892;BME280;21993;42.672;23.296;2022-09-14T08:57:50;94681.94;;;22.23;47.85
35892;BME280;21993;42.672;23.296;2022-09-14T09:00:23;94684.19;;;22.46;47.46
35892;BME280;21993;42.672;23.296;2022-09-14T09:06:00;94680.81;;;22.70;46.80
35892;BME280;21993;42.672;23.296;2022-09-14T09:08:36;94678.78;;;22.59;47.74
35892;BME280;21993;42.672;23.296;2022-09-14T09:11:03;94680.41;;;22.67;47.40
35892;BME280;21993;42.672;23.296;2022-09-14T09:13:33;94677.09;;;22.71;47.92
35892;BME280;21993;42.672;23.296;2022-09-14T09:16:02;94677.81;;;23.05;46.33
35892;BME280;21993;42.672;23.296;2022-09-14T09:18:40;94665.09;;;22.94;46.91
35892;BME280;21993;42.672;23.296;2022-09-14T09:21:15;94670.63;;;22.99;46.61
35892;BME280;21993;42.672;23.296;2022-09-14T09:23:41;94669.78;;;23.05;47.17
35892;BME280;21993;42.672;23.296;2022-09-14T09:28:50;94667.19;;;23.30;46.56
35892;BME280;21993;42.672;23.296;2022-09-14T09:31:18;94658.38;;;23.54;44.96
35892;BME280;21993;42.672;23.296;2022-09-14T09:33:52;94669.09;;;23.54;45.92
35892;BME280;21993;42.672;23.296;2022-09-14T09:36:18;94667.38;;;23.67;45.38
35892;BME280;21993;42.672;23.296;2022-09-14T09:38:44;94670.63;;;23.75;44.64
35892;BME280;21993;42.672;23.296;2022-09-14T09:41:23;94670.84;;;23.74;44.75
35892;BME280;21993;42.672;23.296;2022-09-14T09:46:22;94656.66;;;23.92;44.94
35892;BME280;21993;42.672;23.296;2022-09-14T09:48:48;94648.84;;;23.90;45.74
35892;BME280;21993;42.672;23.296;2022-09-14T09:51:27;94644.88;;;24.18;44.38
35892;BME280;21993;42.672;23.296;2022-09-14T09:56:36;94642.56;;;24.21;44.69
35892;BME280;21993;42.672;23.296;2022-09-14T09:59:27;94642.91;;;24.31;44.74
35892;BME280;21993;42.672;23.296;2022-09-14T10:02:13;94646.66;;;24.67;42.94
35892;BME280;21993;42.672;23.296;2022-09-14T10:07:26;94628.16;;;24.77;42.77
35892;BME280;21993;42.672;23.296;2022-09-14T10:10:06;94626.69;;;24.81;42.65
35892;BME280;21993;42.672;23.296;2022-09-14T10:12:32;94613.69;;;24.78;43.46
35892;BME280;21993;42.672;23.296;2022-09-14T10:15:29;94607.72;;;24.76;43.50
35892;BME280;21993;42.672;23.296;2022-09-14T10:20:25;94602.31;;;25.13;41.61
35892;BME280;21993;42.672;23.296;2022-09-14T10:22:51;94603.53;;;24.98;42.87
35892;BME280;21993;42.672;23.296;2022-09-14T10:30:28;94605.41;;;25.28;41.27
35892;BME280;21993;42.672;23.296;2022-09-14T10:33:08;94614.88;;;25.31;41.70
35892;BME280;21993;42.672;23.296;2022-09-14T10:36:04;94600.31;;;25.50;41.14
35892;BME280;21993;42.672;23.296;2022-09-14T10:38:40;94588.41;;;25.58;41.97
35892;BME280;21993;42.672;23.296;2022-09-14T10:46:20;94601.59;;;26.01;40.38
35892;BME280;21993;42.672;23.296;2022-09-14T10:49:00;94593.50;;;26.13;39.65
35892;BME280;21993;42.672;23.296;2022-09-14T10:54:26;94587.66;;;26.16;38.78
35892;BME280;21993;42.672;23.296;2022-09-14T10:57:07;94581.56;;;25.97;38.96
35892;BME280;21993;42.672;23.296;2022-09-14T10:59:54;94583.22;;;26.09;36.54
35892;BME280;21993;42.672;23.296;2022-09-14T11:05:28;94579.22;;;26.35;34.93
35892;BME280;21993;42.672;23.296;2022-09-14T11:20:01;94574.19;;;26.91;33.27
35892;BME280;21993;42.672;23.296;2022-09-14T11:25:02;94573.53;;;27.12;32.97
35892;BME280;21993;42.672;23.296;2022-09-14T11:27:40;94573.00;;;27.27;32.84
35892;BME280;21993;42.672;23.296;2022-09-14T11:30:10;94566.97;;;27.37;32.59
35892;BME280;21993;42.672;23.296;2022-09-14T11:37:49;94548.81;;;27.49;32.39
35892;BME280;21993;42.672;23.296;2022-09-14T11:42:55;94541.63;;;27.66;32.27
35892;BME280;21993;42.672;23.296;2022-09-14T11:48:07;94538.28;;;27.64;32.54
35892;BME280;21993;42.672;23.296;2022-09-14T11:50:35;94537.84;;;27.67;32.19
35892;BME280;21993;42.672;23.296;2022-09-14T11:53:12;94534.16;;;27.73;32.01
35892;BME280;21993;42.672;23.296;2022-09-14T11:55:44;94548.94;;;27.88;31.53
35892;BME280;21993;42.672;23.296;2022-09-14T11:58:20;94540.75;;;27.83;31.52
35892;BME280;21993;42.672;23.296;2022-09-14T12:01:03;94537.25;;;27.82;32.62
35892;BME280;21993;42.672;23.296;2022-09-14T12:03:52;94530.56;;;27.85;32.50
35892;BME280;21993;42.672;23.296;2022-09-14T12:11:56;94515.72;;;28.04;32.10
35892;BME280;21993;42.672;23.296;2022-09-14T12:19:43;94536.97;;;28.34;31.06
35892;BME280;21993;42.672;23.296;2022-09-14T12:22:33;94535.94;;;28.23;31.43
35892;BME280;21993;42.672;23.296;2022-09-14T12:25:20;94529.25;;;28.26;31.54
35892;BME280;21993;42.672;23.296;2022-09-14T12:27:48;94522.78;;;28.27;32.03
35892;BME280;21993;42.672;23.296;2022-09-14T12:30:32;94529.25;;;28.26;32.02
35892;BME280;21993;42.672;23.296;2022-09-14T12:32:59;94526.06;;;28.29;32.67
35892;BME280;21993;42.672;23.296;2022-09-14T12:46:08;94513.06;;;28.48;31.75
35892;BME280;21993;42.672;23.296;2022-09-14T12:56:41;94514.59;;;28.39;32.64
35892;BME280;21993;42.672;23.296;2022-09-14T13:02:29;94526.84;;;28.46;32.86
35892;BME280;21993;42.672;23.296;2022-09-14T13:05:00;94521.88;;;28.38;33.03
35892;BME280;21993;42.672;23.296;2022-09-14T13:07:32;94508.63;;;28.37;32.58
35892;BME280;21993;42.672;23.296;2022-09-14T13:09:59;94524.44;;;28.50;32.06
35892;BME280;21993;42.672;23.296;2022-09-14T13:12:37;94520.63;;;28.46;32.20
35892;BME280;21993;42.672;23.296;2022-09-14T13:15:06;94533.22;;;28.40;32.50
35892;BME280;21993;42.672;23.296;2022-09-14T13:18:04;94535.69;;;28.42;32.46
35892;BME280;21993;42.672;23.296;2022-09-14T13:20:32;94522.69;;;28.39;32.77
35892;BME280;21993;42.672;23.296;2022-09-14T13:22:58;94521.72;;;28.50;32.87
35892;BME280;21993;42.672;23.296;2022-09-14T13:25:32;94524.22;;;28.51;32.86
35892;BME280;21993;42.672;23.296;2022-09-14T13:28:13;94518.16;;;28.44;33.15
35892;BME280;21993;42.672;23.296;2022-09-14T13:30:40;94520.44;;;28.52;32.66
35892;BME280;21993;42.672;23.296;2022-09-14T13:33:15;94518.81;;;28.51;33.13
35892;BME280;21993;42.672;23.296;2022-09-14T13:35:53;94517.34;;;28.44;32.71
35892;BME280;21993;42.672;23.296;2022-09-14T13:38:24;94519.00;;;28.45;33.74
35892;BME280;21993;42.672;23.296;2022-09-14T13:40:53;94510.31;;;28.43;33.42
35892;BME280;21993;42.672;23.296;2022-09-14T13:43:20;94520.69;;;28.51;33.93
35892;BME280;21993;42.672;23.296;2022-09-14T13:45:48;94523.94;;;28.53;34.03
35892;BME280;21993;42.672;23.296;2022-09-14T13:48:15;94518.22;;;28.49;34.30
35892;BME280;21993;42.672;23.296;2022-09-14T13:50:48;94506.50;;;28.60;33.74
35892;BME280;21993;42.672;23.296;2022-09-14T13:53:48;94516.22;;;28.62;33.43
35892;BME280;21993;42.672;23.296;2022-09-14T13:56:40;94523.50;;;28.61;32.88
35892;BME280;21993;42.672;23.296;2022-09-14T14:01:35;94512.00;;;28.49;33.78
35892;BME280;21993;42.672;23.296;2022-09-14T14:04:01;94504.22;;;28.52;34.07
35892;BME280;21993;42.672;23.296;2022-09-14T14:06:32;94505.34;;;28.56;34.05
35892;BME280;21993;42.672;23.296;2022-09-14T14:09:09;94502.59;;;28.51;33.94
35892;BME280;21993;42.672;23.296;2022-09-14T14:11:51;94504.78;;;28.54;33.39
35892;BME280;21993;42.672;23.296;2022-09-14T14:14:23;94493.69;;;28.51;34.01
35892;BME280;21993;42.672;23.296;2022-09-14T14:19:37;94492.28;;;28.48;34.00
35892;BME280;21993;42.672;23.296;2022-09-14T14:24:39;94480.72;;;28.53;34.14
35892;BME280;21993;42.672;23.296;2022-09-14T14:27:05;94490.97;;;28.51;33.59
35892;BME280;21993;42.672;23.296;2022-09-14T14:29:43;94495.69;;;28.39;34.15
35892;BME280;21993;42.672;23.296;2022-09-14T14:32:08;94486.22;;;28.36;34.50
35892;BME280;21993;42.672;23.296;2022-09-14T14:34:34;94494.06;;;28.38;34.64
35892;BME280;21993;42.672;23.296;2022-09-14T14:36:59;94486.75;;;28.38;34.39
35892;BME280;21993;42.672;23.296;2022-09-14T14:39:26;94485.38;;;28.36;34.38
35892;BME280;21993;42.672;23.296;2022-09-14T14:41:52;94479.66;;;28.32;34.72
35892;BME280;21993;42.672;23.296;2022-09-14T14:44:24;94480.00;;;28.36;34.72
35892;BME280;21993;42.672;23.296;2022-09-14T14:46:52;94486.63;;;28.28;34.86
35892;BME280;21993;42.672;23.296;2022-09-14T14:49:18;94476.06;;;28.26;34.79
35892;BME280;21993;42.672;23.296;2022-09-14T14:51:45;94479.84;;;28.25;34.84
35892;BME280;21993;42.672;23.296;2022-09-14T14:54:11;94473.38;;;28.26;34.87
35892;BME280;21993;42.672;23.296;2022-09-14T14:56:37;94475.00;;;28.27;35.20
35892;BME280;21993;42.672;23.296;2022-09-14T14:59:14;94474.44;;;28.25;34.98
35892;BME280;21993;42.672;23.296;2022-09-14T15:01:40;94475.47;;;28.24;34.86
35892;BME280;21993;42.672;23.296;2022-09-14T15:04:06;94461.41;;;28.22;34.99
35892;BME280;21993;42.672;23.296;2022-09-14T15:06:31;94474.38;;;28.20;35.15
35892;BME280;21993;42.672;23.296;2022-09-14T15:08:56;94468.41;;;28.18;35.00
35892;BME280;21993;42.672;23.296;2022-09-14T15:11:22;94464.88;;;28.18;34.88
35892;BME280;21993;42.672;23.296;2022-09-14T15:13:48;94464.38;;;28.21;35.07